Fairpoint, OH

2:13 PM EDT on October 30, 2014 (GMT -0400)
Wheeling-Ohio County | Change Station
CLOSE
Current Station
Airport
Location: Wheeling,
Elevation: 1194 ft
Nearby Weather Stations

Elev 1194 ft 40.17 °N, 80.65 °W | Updated 20 minutes ago

Clear
Clear
49 °F
Feels Like 49 °F
N
8
Wind Variable Wind from WNW

Today
High -- | Low -- °F
--% Chance of Precip.
Yesterday
High -- | Low -- °F
Precip. -- in
7:50 AM 6:23 PM
Waxing Crescent, 46% visible
Pressure 30.11 in
Visibility 10.0 miles
Clouds Few 2900 ft
Scattered Clouds 4600 ft
Overcast 5500 ft
Dew Point 36 °F
Humidity 61%
Rainfall 0.00 in
Snow Depth Not available.
UV 1 out of 12
Pollen .10 out of 12
Air Quality Not available.
Flu Activity Not available.
METAR KHLG 301753Z 30007KT 10SM FEW029 SCT046 OVC055 09/02 A3008 RMK AO2 SLP195 T00940022 10100 20022 58009

More Conditions Fewer Conditions

Pressure 30.11 in
Visibility 10.0 miles
Clouds Few 2900 ft
Scattered Clouds 4600 ft
Overcast 5500 ft
Dew Point 36 °F
Humidity 61%
Rainfall 0.00 in
Snow Depth Not available.
UV 1 out of 12
Pollen .10 out of 12
Air Quality Not available.
Flu Activity Not available.
METAR KHLG 301753Z 30007KT 10SM FEW029 SCT046 OVC055 09/02 A3008 RMK AO2 SLP195 T00940022 10100 20022 58009

More Conditions Fewer Conditions

10-Day Weather Forecast

Almanac

Astronomy

Oct. 30, 2014 Rise Set
Actual Time
Civil Twilight
Nautical Twilight
Astronomical Twilight
Moon
Length of Visible Light
Length of Day
Tomorrow will be .
, % of the Moon is Illuminated

Today's Extremes

State Highs State Lows

Community

WunderPhotos

Upload Photos

1,766,417 photos uploaded!

WunderBlogs® & News

Nearby

Air Quality

  Air Quality AQ Index Pollutant
Not available.

Snow Depth

Station Depth Elevation

Earthquake Activity

City Distance Mag. Time & Date
Minimum magnitude displayed is 2.5.

Coastal Water Temperatures

Place Temperature

Nearby Weather Stations